createdAt,value
2022-10-02T00:00:19.295Z,21.27
2022-10-02T00:02:51.826Z,25.08
2022-10-02T00:05:24.301Z,30.75
2022-10-02T00:10:28.488Z,23.15
2022-10-02T00:12:59.638Z,22.65
2022-10-02T00:15:29.385Z,23.23
2022-10-02T00:18:01.225Z,21.27
2022-10-02T00:20:35.049Z,22.75
2022-10-02T00:23:09.409Z,22.20
2022-10-02T00:25:44.686Z,20.85
2022-10-02T00:28:28.810Z,22.70
2022-10-02T00:31:07.530Z,28.67
2022-10-02T00:33:46.704Z,20.67
2022-10-02T00:36:24.778Z,19.40
2022-10-02T00:39:01.556Z,18.85
2022-10-02T00:42:05.025Z,21.25
2022-10-02T00:44:49.191Z,26.48
2022-10-02T00:47:32.267Z,18.67
2022-10-02T00:50:15.975Z,27.27
2022-10-02T00:52:57.492Z,16.35
2022-10-02T00:55:46.932Z,23.58
2022-10-02T00:58:36.990Z,24.10
2022-10-02T01:01:11.640Z,18.60
2022-10-02T01:03:41.533Z,17.45
2022-10-02T01:06:10.552Z,20.85
2022-10-02T01:08:39.118Z,23.33
2022-10-02T01:11:09.486Z,20.75
2022-10-02T01:13:37.525Z,21.60
2022-10-02T01:16:05.750Z,18.27
2022-10-02T01:18:33.713Z,23.20
2022-10-02T01:21:06.297Z,23.23
2022-10-02T01:23:42.217Z,18.55
2022-10-02T01:26:11.557Z,23.33
2022-10-02T01:28:40.454Z,18.48
2022-10-02T01:31:11.578Z,20.38
2022-10-02T01:33:41.738Z,18.15
2022-10-02T01:36:10.337Z,21.63
2022-10-02T01:38:38.939Z,16.27
2022-10-02T01:41:07.536Z,18.45
2022-10-02T01:43:40.096Z,19.80
2022-10-02T01:46:34.047Z,21.83
2022-10-02T01:49:17.736Z,14.88
2022-10-02T01:52:00.359Z,23.30
2022-10-02T01:54:41.726Z,18.13
2022-10-02T01:57:25.049Z,17.30
2022-10-02T02:00:06.162Z,19.23
2022-10-02T02:02:42.935Z,14.98
2022-10-02T02:05:19.167Z,18.67
2022-10-02T02:07:50.827Z,19.08
2022-10-02T02:10:24.741Z,21.35
2022-10-02T02:12:57.476Z,22.75
2022-10-02T02:15:31.060Z,20.45
2022-10-02T02:18:05.198Z,16.77
2022-10-02T02:20:39.756Z,16.88
2022-10-02T02:23:11.838Z,18.60
2022-10-02T02:25:45.228Z,12.98
2022-10-02T02:28:16.109Z,14.68
2022-10-02T02:30:47.636Z,16.80
2022-10-02T02:33:22.963Z,24.60
2022-10-02T02:35:55.350Z,21.83
2022-10-02T02:41:04.198Z,20.00
2022-10-02T02:43:36.851Z,19.23
2022-10-02T02:46:10.269Z,18.88
2022-10-02T02:48:43.748Z,18.13
2022-10-02T02:51:16.898Z,23.27
2022-10-02T02:53:49.541Z,18.92
2022-10-02T02:56:19.974Z,18.23
2022-10-02T02:58:53.972Z,18.95
2022-10-02T03:01:23.566Z,23.77
2022-10-02T03:03:51.475Z,13.20
2022-10-02T03:06:33.276Z,17.00
2022-10-02T03:09:02.814Z,15.48
2022-10-02T03:11:42.659Z,15.95
2022-10-02T03:14:27.844Z,19.20
2022-10-02T03:17:05.870Z,17.92
2022-10-02T03:19:43.941Z,17.83
2022-10-02T03:22:16.870Z,19.67
2022-10-02T03:24:50.471Z,17.30
2022-10-02T03:27:30.210Z,17.92
2022-10-02T03:30:04.882Z,16.25
2022-10-02T03:32:34.950Z,13.15
2022-10-02T03:35:04.071Z,15.93
2022-10-02T03:37:32.988Z,15.50
2022-10-02T03:40:02.092Z,16.75
2022-10-02T03:42:34.145Z,17.33
2022-10-02T03:45:02.357Z,12.55
2022-10-02T03:47:30.359Z,14.98
2022-10-02T03:49:59.822Z,14.27
2022-10-02T03:52:29.767Z,13.98
2022-10-02T03:55:03.667Z,17.50
2022-10-02T03:57:35.654Z,12.23
2022-10-02T04:00:06.177Z,18.45
2022-10-02T04:02:37.683Z,19.63
2022-10-02T04:05:21.888Z,17.27
2022-10-02T04:07:53.352Z,21.50
2022-10-02T04:10:33.630Z,18.87
2022-10-02T04:13:11.964Z,16.48
2022-10-02T04:15:53.379Z,16.92
2022-10-02T04:18:25.305Z,17.80
2022-10-02T04:20:57.562Z,19.00
2022-10-02T04:23:30.575Z,18.85
2022-10-02T04:26:04.508Z,20.58
2022-10-02T04:28:40.322Z,19.95
2022-10-02T04:31:13.367Z,20.02
2022-10-02T04:33:42.065Z,21.20
2022-10-02T04:36:25.218Z,19.88
2022-10-02T04:39:06.269Z,17.77
2022-10-02T04:41:49.753Z,18.23
2022-10-02T04:44:30.686Z,21.05
2022-10-02T04:47:17.537Z,20.73
2022-10-02T04:50:18.291Z,18.70
2022-10-02T04:53:03.906Z,21.10
2022-10-02T04:55:45.215Z,20.20
2022-10-02T04:58:36.107Z,17.65
2022-10-02T05:01:14.991Z,17.38
2022-10-02T05:04:04.045Z,16.60
2022-10-02T05:06:53.642Z,15.50
2022-10-02T05:09:30.627Z,14.45
2022-10-02T05:12:21.369Z,11.05
2022-10-02T05:15:04.905Z,14.82
2022-10-02T05:17:58.673Z,16.67
2022-10-02T05:20:46.333Z,17.15
2022-10-02T05:23:32.735Z,14.75
2022-10-02T05:26:23.508Z,14.00
2022-10-02T05:29:12.090Z,17.25
2022-10-02T05:31:52.747Z,11.88
2022-10-02T05:34:37.849Z,11.73
2022-10-02T05:37:26.030Z,9.27
2022-10-02T05:39:59.843Z,12.70
2022-10-02T05:42:34.925Z,12.68
2022-10-02T05:45:06.175Z,13.55
2022-10-02T05:47:39.325Z,15.90
2022-10-02T05:50:17.765Z,13.88
2022-10-02T05:52:52.088Z,13.70
2022-10-02T05:55:24.885Z,14.35
2022-10-02T05:58:00.908Z,15.95
2022-10-02T06:00:33.991Z,15.02
2022-10-02T06:03:12.792Z,19.15
2022-10-02T06:05:50.176Z,14.93
2022-10-02T06:08:25.318Z,17.45
2022-10-02T06:10:58.176Z,15.07
2022-10-02T06:13:35.758Z,14.60
2022-10-02T06:16:11.414Z,17.50
2022-10-02T06:18:42.939Z,12.10
2022-10-02T06:21:24.837Z,18.23
2022-10-02T06:23:57.017Z,14.02
2022-10-02T06:26:30.714Z,15.15
2022-10-02T06:29:03.918Z,13.05
2022-10-02T06:31:39.415Z,11.32
2022-10-02T06:34:10.731Z,14.52
2022-10-02T06:37:04.750Z,16.38
2022-10-02T06:39:48.561Z,13.40
2022-10-02T06:42:25.047Z,11.35
2022-10-02T06:45:01.902Z,13.73
2022-10-02T06:47:41.671Z,16.90
2022-10-02T06:50:38.213Z,17.10
2022-10-02T06:53:16.778Z,17.17
2022-10-02T06:55:50.577Z,14.60
2022-10-02T06:58:46.427Z,13.80
2022-10-02T07:01:25.551Z,14.88
2022-10-02T07:04:20.834Z,18.23
2022-10-02T07:07:05.792Z,13.05
2022-10-02T07:10:07.766Z,15.15
2022-10-02T07:13:03.033Z,18.90
2022-10-02T07:15:57.922Z,15.95
2022-10-02T07:18:37.962Z,19.20
2022-10-02T07:21:17.136Z,14.88
2022-10-02T07:23:53.038Z,18.42
2022-10-02T07:26:37.065Z,13.65
2022-10-02T07:29:30.381Z,16.05
2022-10-02T07:32:31.108Z,16.58
2022-10-02T07:35:09.078Z,13.88
2022-10-02T07:37:49.046Z,19.70
2022-10-02T07:40:37.220Z,16.33
2022-10-02T07:43:26.910Z,15.48
2022-10-02T07:46:03.702Z,14.52
2022-10-02T07:48:45.709Z,15.80
2022-10-02T07:51:42.806Z,14.77
2022-10-02T07:54:31.050Z,17.02
2022-10-02T07:57:09.037Z,15.30
2022-10-02T07:59:43.513Z,17.33
2022-10-02T08:02:21.650Z,15.15
2022-10-02T08:04:49.899Z,17.67
2022-10-02T08:07:19.242Z,15.88
2022-10-02T08:09:51.551Z,17.10
2022-10-02T08:14:58.675Z,14.38
2022-10-02T08:17:33.534Z,12.85
2022-10-02T08:20:06.947Z,16.95
2022-10-02T08:22:40.500Z,17.60
2022-10-02T08:25:18.439Z,14.50
2022-10-02T08:27:53.012Z,16.13
2022-10-02T08:30:21.387Z,16.17
2022-10-02T08:32:49.446Z,16.25
2022-10-02T08:35:19.723Z,15.27
2022-10-02T08:38:15.314Z,19.15
2022-10-02T08:41:18.402Z,14.38
2022-10-02T08:44:20.308Z,16.30
2022-10-02T08:47:19.686Z,12.30
2022-10-02T08:50:38.689Z,18.80
2022-10-02T08:53:46.400Z,13.38
2022-10-02T08:56:33.936Z,13.32
2022-10-02T08:59:43.147Z,15.40
2022-10-02T09:02:49.341Z,13.20
2022-10-02T09:05:59.222Z,15.88
2022-10-02T09:09:00.484Z,12.32
2022-10-02T09:11:59.149Z,10.55
2022-10-02T09:14:48.291Z,13.77
2022-10-02T09:17:42.442Z,13.80
2022-10-02T09:20:43.784Z,15.23
2022-10-02T09:23:48.212Z,10.90
2022-10-02T09:26:26.950Z,15.32
2022-10-02T09:29:28.761Z,9.07
2022-10-02T09:32:43.172Z,15.65
2022-10-02T09:35:50.614Z,11.85
2022-10-02T09:38:49.705Z,13.43
2022-10-02T09:42:01.269Z,15.18
2022-10-02T09:45:12.221Z,14.30
2022-10-02T09:48:12.944Z,9.90
2022-10-02T09:51:13.396Z,15.45
2022-10-02T09:54:10.385Z,12.07
2022-10-02T09:57:20.768Z,9.90
2022-10-02T10:00:08.351Z,10.38
2022-10-02T10:03:11.193Z,14.82
2022-10-02T10:08:48.530Z,11.65
2022-10-02T10:11:48.138Z,12.07
2022-10-02T10:15:08.648Z,14.75
2022-10-02T10:18:19.257Z,12.27
2022-10-02T10:21:20.312Z,11.63
2022-10-02T10:24:23.426Z,12.95
2022-10-02T10:27:16.831Z,15.38
2022-10-02T10:30:15.437Z,13.63
2022-10-02T10:33:12.497Z,16.52
2022-10-02T10:35:56.988Z,11.95
2022-10-02T10:38:39.812Z,13.02
2022-10-02T10:41:37.765Z,13.55
2022-10-02T10:44:21.940Z,16.27
2022-10-02T10:47:25.485Z,15.70
2022-10-02T10:50:24.097Z,11.32
2022-10-02T10:53:12.736Z,12.55
2022-10-02T10:56:09.780Z,12.50
2022-10-02T10:58:54.016Z,11.13
2022-10-02T11:01:36.997Z,15.15
2022-10-02T11:04:45.906Z,15.95
2022-10-02T11:07:34.695Z,15.15
2022-10-02T11:10:22.228Z,16.80
2022-10-02T11:13:09.772Z,12.95
2022-10-02T11:16:01.233Z,10.00
2022-10-02T11:18:46.214Z,11.38
2022-10-02T11:21:58.288Z,13.93
2022-10-02T11:24:56.941Z,10.90
2022-10-02T11:27:37.521Z,13.52
2022-10-02T11:30:23.189Z,11.80
2022-10-02T11:33:19.328Z,10.43
2022-10-02T11:36:30.559Z,12.98
2022-10-02T11:39:28.347Z,10.15
2022-10-02T11:42:25.246Z,10.05
2022-10-02T11:45:16.550Z,10.68
2022-10-02T11:48:16.420Z,10.73
2022-10-02T11:51:01.990Z,11.23
2022-10-02T11:53:49.743Z,14.02
2022-10-02T11:56:49.271Z,13.85
2022-10-02T11:59:51.779Z,11.65
2022-10-02T12:02:26.204Z,10.60
2022-10-02T12:05:11.443Z,11.27
2022-10-02T12:07:47.037Z,13.40
2022-10-02T12:10:29.679Z,13.10
2022-10-02T12:13:16.916Z,17.38
2022-10-02T12:15:53.249Z,11.82
2022-10-02T12:18:32.881Z,12.80
2022-10-02T12:21:35.958Z,13.85
2022-10-02T12:24:32.020Z,15.95
2022-10-02T12:27:11.483Z,13.35
2022-10-02T12:29:51.182Z,14.88
2022-10-02T12:32:37.546Z,15.10
2022-10-02T12:35:21.937Z,13.85
2022-10-02T12:38:01.665Z,14.68
2022-10-02T12:40:38.542Z,11.52
2022-10-02T12:43:30.896Z,13.18
2022-10-02T12:46:14.968Z,17.25
2022-10-02T12:49:04.946Z,15.82
2022-10-02T12:51:54.948Z,13.35
2022-10-02T12:54:52.345Z,11.13
2022-10-02T12:57:55.354Z,10.75
2022-10-02T13:00:26.180Z,10.15
2022-10-02T13:03:27.604Z,11.13
2022-10-02T13:06:37.351Z,12.95
2022-10-02T13:09:16.648Z,8.20
2022-10-02T13:11:57.089Z,12.40
2022-10-02T13:14:55.018Z,10.55
2022-10-02T13:17:31.667Z,10.75
2022-10-02T13:20:11.746Z,10.32
2022-10-02T13:22:49.317Z,11.57
2022-10-02T13:25:35.102Z,10.95
2022-10-02T13:28:18.013Z,11.30
2022-10-02T13:30:54.982Z,10.30
2022-10-02T13:33:38.662Z,9.15
2022-10-02T13:36:15.169Z,5.35
2022-10-02T13:39:08.103Z,10.60
2022-10-02T13:41:54.379Z,7.75
2022-10-02T13:44:30.569Z,10.85
2022-10-02T13:47:22.689Z,10.13
2022-10-02T13:50:08.541Z,9.75
2022-10-02T13:52:46.058Z,13.05
2022-10-02T13:55:23.714Z,10.93
2022-10-02T13:58:07.143Z,10.02
2022-10-02T14:00:55.297Z,12.23
2022-10-02T14:03:35.932Z,14.65
2022-10-02T14:06:13.138Z,9.18
2022-10-02T14:09:08.102Z,9.60
2022-10-02T14:11:51.679Z,12.00
2022-10-02T14:14:35.913Z,10.32
2022-10-02T14:17:18.662Z,10.07
2022-10-02T14:20:03.075Z,16.23
2022-10-02T14:22:46.477Z,11.93
2022-10-02T14:25:36.061Z,8.73
2022-10-02T14:28:27.229Z,9.13
2022-10-02T14:31:18.771Z,8.38
2022-10-02T14:34:06.767Z,9.33
2022-10-02T14:36:42.120Z,8.07
2022-10-02T14:39:29.612Z,12.77
2022-10-02T14:42:15.683Z,9.60
2022-10-02T14:45:21.870Z,12.38
2022-10-02T14:48:07.798Z,10.90
2022-10-02T14:51:01.383Z,10.70
2022-10-02T14:53:50.356Z,11.15
2022-10-02T14:56:53.417Z,10.00
2022-10-02T14:59:46.928Z,11.50
2022-10-02T15:02:54.901Z,8.98
2022-10-02T15:05:47.674Z,7.88
2022-10-02T15:08:21.344Z,12.93
2022-10-02T15:10:50.581Z,11.73
2022-10-02T15:13:28.583Z,9.63
2022-10-02T15:16:20.562Z,10.18
2022-10-02T15:18:58.073Z,11.05
2022-10-02T15:21:31.245Z,11.30
2022-10-02T15:24:00.880Z,12.32
2022-10-02T15:26:46.960Z,11.88
2022-10-02T15:29:26.049Z,11.57
2022-10-02T15:32:36.317Z,10.95
2022-10-02T15:35:21.762Z,9.77
2022-10-02T15:38:03.266Z,9.82
2022-10-02T15:40:36.992Z,9.67
2022-10-02T15:43:29.646Z,10.60
2022-10-02T15:46:11.027Z,9.25
2022-10-02T15:49:02.832Z,10.15
2022-10-02T15:51:55.640Z,8.40
2022-10-02T15:54:38.880Z,16.25
2022-10-02T15:57:36.404Z,9.95
2022-10-02T16:00:13.169Z,9.45
2022-10-02T16:02:58.391Z,11.50
2022-10-02T16:05:53.797Z,10.93
2022-10-02T16:08:43.189Z,12.05
2022-10-02T16:11:30.154Z,9.73
2022-10-02T16:14:07.826Z,11.18
2022-10-02T16:17:12.801Z,9.68
2022-10-02T16:20:08.826Z,9.30
2022-10-02T16:23:08.578Z,11.60
2022-10-02T16:25:53.145Z,10.85
2022-10-02T16:28:34.305Z,12.30
2022-10-02T16:31:17.450Z,15.90
2022-10-02T16:33:56.828Z,10.00
2022-10-02T16:36:33.725Z,10.73
2022-10-02T16:39:17.423Z,9.77
2022-10-02T16:42:02.796Z,10.65
2022-10-02T16:45:03.100Z,9.45
2022-10-02T16:47:36.282Z,8.98
2022-10-02T16:50:15.027Z,10.05
2022-10-02T16:52:48.553Z,12.65
2022-10-02T16:55:29.917Z,12.88
2022-10-02T16:58:24.469Z,12.25
2022-10-02T17:00:59.409Z,12.32
2022-10-02T17:03:33.629Z,12.55
2022-10-02T17:06:06.449Z,8.80
2022-10-02T17:08:41.028Z,12.88
2022-10-02T17:11:23.721Z,11.73
2022-10-02T17:14:10.819Z,11.43
2022-10-02T17:16:44.200Z,11.52
2022-10-02T17:19:21.951Z,15.93
2022-10-02T17:21:54.703Z,8.68
2022-10-02T17:24:42.632Z,14.82
2022-10-02T17:27:17.321Z,12.48
2022-10-02T17:30:05.306Z,12.55
2022-10-02T17:32:40.028Z,8.18
2022-10-02T17:35:17.080Z,13.13
2022-10-02T17:38:02.790Z,9.45
2022-10-02T17:40:35.683Z,10.20
2022-10-02T17:43:14.126Z,15.18
2022-10-02T17:45:52.637Z,13.10
2022-10-02T17:48:44.672Z,15.32
2022-10-02T17:51:51.267Z,10.93
2022-10-02T17:54:43.943Z,9.18
2022-10-02T17:57:25.459Z,11.57
2022-10-02T18:00:10.958Z,10.38
2022-10-02T18:03:03.852Z,10.30
2022-10-02T18:05:45.409Z,8.85
2022-10-02T18:08:30.613Z,11.98
2022-10-02T18:11:06.998Z,8.82
2022-10-02T18:14:03.858Z,8.52
2022-10-02T18:16:41.556Z,11.93
2022-10-02T18:19:26.540Z,10.95
2022-10-02T18:22:07.013Z,15.07
2022-10-02T18:24:52.697Z,10.02
2022-10-02T18:27:56.859Z,14.75
2022-10-02T18:30:29.566Z,14.50
2022-10-02T18:33:31.732Z,12.52
2022-10-02T18:36:19.805Z,11.48
2022-10-02T18:38:58.730Z,12.93
2022-10-02T18:41:52.103Z,9.27
2022-10-02T18:44:38.295Z,13.18
2022-10-02T18:47:14.878Z,17.33
2022-10-02T18:49:56.788Z,10.35
2022-10-02T18:52:47.071Z,10.98
2022-10-02T18:55:40.990Z,9.52
2022-10-02T18:58:24.145Z,10.18
2022-10-02T19:01:10.286Z,11.20
2022-10-02T19:03:53.217Z,8.77
2022-10-02T19:06:29.102Z,9.38
2022-10-02T19:09:29.318Z,12.73
2022-10-02T19:12:01.215Z,13.90
2022-10-02T19:14:35.153Z,10.52
2022-10-02T19:17:06.204Z,10.30
2022-10-02T19:19:35.046Z,16.63
2022-10-02T19:22:11.818Z,12.35
2022-10-02T19:24:43.977Z,14.50
2022-10-02T19:27:20.897Z,12.43
2022-10-02T19:29:55.860Z,10.75
2022-10-02T19:32:27.502Z,7.97
2022-10-02T19:35:01.545Z,13.48
2022-10-02T19:37:31.511Z,12.25
2022-10-02T19:40:03.265Z,13.45
2022-10-02T19:42:38.762Z,10.55
2022-10-02T19:45:09.164Z,15.30
2022-10-02T19:47:42.049Z,15.38
2022-10-02T19:50:20.738Z,11.20
2022-10-02T19:52:54.410Z,11.55
2022-10-02T19:55:27.235Z,10.20
2022-10-02T19:57:58.758Z,10.88
2022-10-02T20:00:26.849Z,10.07
2022-10-02T20:02:57.877Z,7.70
2022-10-02T20:05:27.909Z,10.05
2022-10-02T20:08:01.940Z,11.30
2022-10-02T20:10:38.972Z,12.05
2022-10-02T20:13:15.797Z,14.20
2022-10-02T20:16:07.879Z,13.60
2022-10-02T20:18:37.365Z,10.85
2022-10-02T20:21:13.052Z,11.38
2022-10-02T20:23:43.757Z,12.90
2022-10-02T20:26:16.157Z,14.02
2022-10-02T20:31:20.088Z,9.10
2022-10-02T20:33:51.348Z,11.18
2022-10-02T20:36:22.118Z,10.40
2022-10-02T20:38:54.486Z,14.57
2022-10-02T20:41:27.310Z,10.23
2022-10-02T20:44:02.233Z,8.80
2022-10-02T20:47:06.196Z,11.23
2022-10-02T20:49:56.382Z,11.32
2022-10-02T20:52:55.802Z,9.13
2022-10-02T20:55:30.398Z,12.95
2022-10-02T20:58:26.594Z,10.50
2022-10-02T21:01:17.069Z,9.55
2022-10-02T21:06:54.690Z,8.32
2022-10-02T21:09:59.009Z,11.50
2022-10-02T21:12:58.177Z,13.07
2022-10-02T21:16:05.794Z,14.68
2022-10-02T21:19:06.089Z,13.07
2022-10-02T21:22:05.542Z,12.23
2022-10-02T21:25:13.387Z,13.27
2022-10-02T21:28:05.460Z,11.50
2022-10-02T21:30:43.541Z,11.07
2022-10-02T21:33:20.648Z,9.77
2022-10-02T21:35:56.530Z,12.05
2022-10-02T21:38:52.183Z,10.23
2022-10-02T21:41:53.261Z,8.38
2022-10-02T21:44:59.162Z,6.65
2022-10-02T21:48:04.634Z,12.60
2022-10-02T21:51:10.650Z,9.52
2022-10-02T21:54:02.611Z,12.52
2022-10-02T21:57:07.661Z,9.90
2022-10-02T22:00:07.165Z,10.30
2022-10-02T22:03:04.297Z,9.40
2022-10-02T22:06:22.652Z,8.50
2022-10-02T22:09:17.670Z,8.80
2022-10-02T22:11:58.484Z,13.02
2022-10-02T22:14:34.725Z,8.90
2022-10-02T22:17:14.973Z,11.10
2022-10-02T22:20:02.302Z,9.48
2022-10-02T22:22:42.577Z,9.95
2022-10-02T22:25:26.660Z,11.00
2022-10-02T22:28:17.444Z,18.52
2022-10-02T22:31:05.373Z,8.25
2022-10-02T22:33:47.162Z,13.15
2022-10-02T22:36:35.715Z,8.50
2022-10-02T22:39:09.146Z,7.18
2022-10-02T22:41:43.237Z,10.60
2022-10-02T22:44:21.237Z,9.20
2022-10-02T22:46:56.282Z,8.85
2022-10-02T22:49:30.207Z,9.90
2022-10-02T22:52:04.910Z,10.68
2022-10-02T22:54:40.915Z,10.38
2022-10-02T22:57:22.090Z,10.38
2022-10-02T22:59:55.361Z,8.02
2022-10-02T23:02:29.339Z,11.30
2022-10-02T23:05:05.641Z,9.10
2022-10-02T23:07:42.725Z,10.93
2022-10-02T23:10:22.213Z,11.05
2022-10-02T23:13:03.339Z,7.13
2022-10-02T23:15:53.811Z,10.25
2022-10-02T23:18:29.939Z,7.05
2022-10-02T23:21:04.825Z,8.52
2022-10-02T23:23:42.078Z,5.75
2022-10-02T23:26:14.830Z,10.32
2022-10-02T23:28:53.627Z,6.35
2022-10-02T23:31:30.376Z,7.50
2022-10-02T23:34:08.497Z,8.32
2022-10-02T23:36:47.535Z,9.18
2022-10-02T23:39:22.470Z,9.63
2022-10-02T23:41:55.034Z,16.08
2022-10-02T23:47:11.067Z,7.28
2022-10-02T23:49:42.305Z,7.50
2022-10-02T23:52:30.096Z,9.52
2022-10-02T23:55:18.303Z,10.75
2022-10-02T23:58:13.549Z,7.75
